sensor_id;sensor_type;location;lat;lon;timestamp;P1;durP1;ratioP1;P2;durP2;ratioP2
13795;SDS011;40911;51.552;9.874;2023-04-07T00:06:03;16.45;;;11.75;;
13795;SDS011;40911;51.552;9.874;2023-04-07T00:08:25;16.02;;;11.43;;
13795;SDS011;40911;51.552;9.874;2023-04-07T00:10:47;13.40;;;10.15;;
13795;SDS011;40911;51.552;9.874;2023-04-07T00:13:08;15.05;;;10.90;;
13795;SDS011;40911;51.552;9.874;2023-04-07T00:15:30;18.65;;;10.68;;
13795;SDS011;40911;51.552;9.874;2023-04-07T00:17:51;16.67;;;10.90;;
13795;SDS011;40911;51.552;9.874;2023-04-07T00:20:13;14.73;;;9.90;;
13795;SDS011;40911;51.552;9.874;2023-04-07T00:22:36;16.83;;;10.85;;
13795;SDS011;40911;51.552;9.874;2023-04-07T00:24:58;17.33;;;10.65;;
13795;SDS011;40911;51.552;9.874;2023-04-07T00:27:19;15.52;;;10.07;;
13795;SDS011;40911;51.552;9.874;2023-04-07T00:29:42;17.45;;;10.68;;
13795;SDS011;40911;51.552;9.874;2023-04-07T00:32:05;13.63;;;9.57;;
13795;SDS011;40911;51.552;9.874;2023-04-07T00:36:48;15.33;;;10.20;;
13795;SDS011;40911;51.552;9.874;2023-04-07T00:39:12;14.95;;;9.65;;
13795;SDS011;40911;51.552;9.874;2023-04-07T00:41:34;13.50;;;9.95;;
13795;SDS011;40911;51.552;9.874;2023-04-07T00:43:55;16.55;;;10.02;;
13795;SDS011;40911;51.552;9.874;2023-04-07T00:46:18;16.88;;;10.68;;
13795;SDS011;40911;51.552;9.874;2023-04-07T00:48:42;14.60;;;10.23;;
13795;SDS011;40911;51.552;9.874;2023-04-07T00:51:04;17.20;;;9.75;;
13795;SDS011;40911;51.552;9.874;2023-04-07T00:53:27;13.63;;;9.07;;
13795;SDS011;40911;51.552;9.874;2023-04-07T00:55:51;15.88;;;10.48;;
13795;SDS011;40911;51.552;9.874;2023-04-07T00:58:12;16.90;;;9.65;;
13795;SDS011;40911;51.552;9.874;2023-04-07T01:00:35;15.75;;;10.10;;
13795;SDS011;40911;51.552;9.874;2023-04-07T01:03:04;15.93;;;9.95;;
13795;SDS011;40911;51.552;9.874;2023-04-07T01:05:30;18.65;;;9.88;;
13795;SDS011;40911;51.552;9.874;2023-04-07T01:08:12;14.50;;;9.80;;
13795;SDS011;40911;51.552;9.874;2023-04-07T01:10:51;13.30;;;9.95;;
13795;SDS011;40911;51.552;9.874;2023-04-07T01:13:21;17.38;;;10.20;;
13795;SDS011;40911;51.552;9.874;2023-04-07T01:15:44;14.32;;;10.13;;
13795;SDS011;40911;51.552;9.874;2023-04-07T01:18:12;15.07;;;10.15;;
13795;SDS011;40911;51.552;9.874;2023-04-07T01:20:37;14.43;;;9.38;;
13795;SDS011;40911;51.552;9.874;2023-04-07T01:23:02;16.20;;;9.73;;
13795;SDS011;40911;51.552;9.874;2023-04-07T01:25:26;14.68;;;10.40;;
13795;SDS011;40911;51.552;9.874;2023-04-07T01:28:04;14.15;;;9.85;;
13795;SDS011;40911;51.552;9.874;2023-04-07T01:30:38;16.20;;;10.18;;
13795;SDS011;40911;51.552;9.874;2023-04-07T01:33:01;17.15;;;10.95;;
13795;SDS011;40911;51.552;9.874;2023-04-07T01:35:24;15.65;;;10.27;;
13795;SDS011;40911;51.552;9.874;2023-04-07T01:37:49;15.68;;;10.85;;
13795;SDS011;40911;51.552;9.874;2023-04-07T01:40:11;13.70;;;9.68;;
13795;SDS011;40911;51.552;9.874;2023-04-07T01:42:33;15.85;;;10.40;;
13795;SDS011;40911;51.552;9.874;2023-04-07T01:44:56;14.40;;;10.60;;
13795;SDS011;40911;51.552;9.874;2023-04-07T01:47:20;13.70;;;9.75;;
13795;SDS011;40911;51.552;9.874;2023-04-07T01:49:42;15.18;;;10.65;;
13795;SDS011;40911;51.552;9.874;2023-04-07T01:52:05;15.38;;;10.35;;
13795;SDS011;40911;51.552;9.874;2023-04-07T01:54:27;15.15;;;10.18;;
13795;SDS011;40911;51.552;9.874;2023-04-07T01:56:49;14.35;;;10.38;;
13795;SDS011;40911;51.552;9.874;2023-04-07T01:59:11;17.02;;;10.55;;
13795;SDS011;40911;51.552;9.874;2023-04-07T02:03:58;13.98;;;9.65;;
13795;SDS011;40911;51.552;9.874;2023-04-07T02:06:27;15.13;;;10.30;;
13795;SDS011;40911;51.552;9.874;2023-04-07T02:08:54;18.25;;;10.90;;
13795;SDS011;40911;51.552;9.874;2023-04-07T02:11:20;15.93;;;11.13;;
13795;SDS011;40911;51.552;9.874;2023-04-07T02:13:43;16.52;;;11.10;;
13795;SDS011;40911;51.552;9.874;2023-04-07T02:16:06;16.27;;;10.88;;
13795;SDS011;40911;51.552;9.874;2023-04-07T02:18:29;16.98;;;10.93;;
13795;SDS011;40911;51.552;9.874;2023-04-07T02:20:53;14.55;;;10.60;;
13795;SDS011;40911;51.552;9.874;2023-04-07T02:23:16;14.90;;;10.52;;
13795;SDS011;40911;51.552;9.874;2023-04-07T02:25:37;15.45;;;11.32;;
13795;SDS011;40911;51.552;9.874;2023-04-07T02:27:59;14.88;;;10.82;;
13795;SDS011;40911;51.552;9.874;2023-04-07T02:32:43;18.13;;;11.07;;
13795;SDS011;40911;51.552;9.874;2023-04-07T02:37:27;16.42;;;11.32;;
13795;SDS011;40911;51.552;9.874;2023-04-07T02:39:49;19.05;;;11.73;;
13795;SDS011;40911;51.552;9.874;2023-04-07T02:42:10;17.10;;;11.77;;
13795;SDS011;40911;51.552;9.874;2023-04-07T02:44:32;23.48;;;12.13;;
13795;SDS011;40911;51.552;9.874;2023-04-07T02:46:53;19.08;;;12.07;;
13795;SDS011;40911;51.552;9.874;2023-04-07T02:49:15;16.10;;;11.32;;
13795;SDS011;40911;51.552;9.874;2023-04-07T02:51:37;16.02;;;11.52;;
13795;SDS011;40911;51.552;9.874;2023-04-07T02:53:59;15.38;;;10.95;;
13795;SDS011;40911;51.552;9.874;2023-04-07T02:56:21;16.25;;;11.23;;
13795;SDS011;40911;51.552;9.874;2023-04-07T02:58:43;21.40;;;12.20;;
13795;SDS011;40911;51.552;9.874;2023-04-07T03:01:04;16.13;;;11.93;;
13795;SDS011;40911;51.552;9.874;2023-04-07T03:03:26;19.50;;;11.23;;
13795;SDS011;40911;51.552;9.874;2023-04-07T03:05:47;19.27;;;12.07;;
13795;SDS011;40911;51.552;9.874;2023-04-07T03:08:09;16.52;;;11.32;;
13795;SDS011;40911;51.552;9.874;2023-04-07T03:12:55;16.80;;;11.77;;
13795;SDS011;40911;51.552;9.874;2023-04-07T03:15:17;16.52;;;12.10;;
13795;SDS011;40911;51.552;9.874;2023-04-07T03:17:38;17.98;;;12.20;;
13795;SDS011;40911;51.552;9.874;2023-04-07T03:20:00;18.25;;;11.90;;
13795;SDS011;40911;51.552;9.874;2023-04-07T03:22:22;19.58;;;12.15;;
13795;SDS011;40911;51.552;9.874;2023-04-07T03:24:44;18.58;;;12.52;;
13795;SDS011;40911;51.552;9.874;2023-04-07T03:27:06;16.02;;;12.55;;
13795;SDS011;40911;51.552;9.874;2023-04-07T03:29:28;17.98;;;13.10;;
13795;SDS011;40911;51.552;9.874;2023-04-07T03:31:49;17.85;;;12.48;;
13795;SDS011;40911;51.552;9.874;2023-04-07T03:34:11;19.02;;;12.60;;
13795;SDS011;40911;51.552;9.874;2023-04-07T03:36:33;19.13;;;12.77;;
13795;SDS011;40911;51.552;9.874;2023-04-07T03:38:55;19.65;;;12.57;;
13795;SDS011;40911;51.552;9.874;2023-04-07T03:41:16;18.85;;;13.02;;
13795;SDS011;40911;51.552;9.874;2023-04-07T03:43:39;24.42;;;12.90;;
13795;SDS011;40911;51.552;9.874;2023-04-07T03:46:01;20.58;;;11.90;;
13795;SDS011;40911;51.552;9.874;2023-04-07T03:48:23;17.23;;;12.50;;
13795;SDS011;40911;51.552;9.874;2023-04-07T03:50:44;18.83;;;12.35;;
13795;SDS011;40911;51.552;9.874;2023-04-07T03:53:06;21.35;;;13.20;;
13795;SDS011;40911;51.552;9.874;2023-04-07T03:55:28;16.90;;;12.63;;
13795;SDS011;40911;51.552;9.874;2023-04-07T03:57:50;20.05;;;12.68;;
13795;SDS011;40911;51.552;9.874;2023-04-07T04:00:13;15.55;;;11.73;;
13795;SDS011;40911;51.552;9.874;2023-04-07T04:02:35;16.60;;;11.55;;
13795;SDS011;40911;51.552;9.874;2023-04-07T04:04:57;19.58;;;12.65;;
13795;SDS011;40911;51.552;9.874;2023-04-07T04:07:18;17.70;;;12.93;;
13795;SDS011;40911;51.552;9.874;2023-04-07T04:09:40;18.85;;;13.50;;
13795;SDS011;40911;51.552;9.874;2023-04-07T04:12:01;16.95;;;12.93;;
13795;SDS011;40911;51.552;9.874;2023-04-07T04:14:23;19.60;;;13.50;;
13795;SDS011;40911;51.552;9.874;2023-04-07T04:16:46;20.33;;;13.63;;
13795;SDS011;40911;51.552;9.874;2023-04-07T04:19:08;19.42;;;12.85;;
13795;SDS011;40911;51.552;9.874;2023-04-07T04:21:29;19.83;;;13.43;;
13795;SDS011;40911;51.552;9.874;2023-04-07T04:23:51;17.63;;;12.80;;
13795;SDS011;40911;51.552;9.874;2023-04-07T04:26:12;19.23;;;12.80;;
13795;SDS011;40911;51.552;9.874;2023-04-07T04:28:35;17.75;;;13.13;;
13795;SDS011;40911;51.552;9.874;2023-04-07T04:30:56;21.73;;;13.70;;
13795;SDS011;40911;51.552;9.874;2023-04-07T04:33:19;16.58;;;13.20;;
13795;SDS011;40911;51.552;9.874;2023-04-07T04:35:41;20.38;;;13.65;;
13795;SDS011;40911;51.552;9.874;2023-04-07T04:38:02;18.98;;;12.27;;
13795;SDS011;40911;51.552;9.874;2023-04-07T04:40:24;19.10;;;13.18;;
13795;SDS011;40911;51.552;9.874;2023-04-07T04:42:45;18.60;;;12.98;;
13795;SDS011;40911;51.552;9.874;2023-04-07T04:45:07;17.45;;;12.02;;
13795;SDS011;40911;51.552;9.874;2023-04-07T04:47:30;19.95;;;13.23;;
13795;SDS011;40911;51.552;9.874;2023-04-07T04:49:53;19.42;;;12.73;;
13795;SDS011;40911;51.552;9.874;2023-04-07T04:52:14;23.10;;;13.50;;
13795;SDS011;40911;51.552;9.874;2023-04-07T04:54:36;18.42;;;13.15;;
13795;SDS011;40911;51.552;9.874;2023-04-07T04:56:57;17.52;;;12.73;;
13795;SDS011;40911;51.552;9.874;2023-04-07T04:59:20;17.65;;;11.65;;
13795;SDS011;40911;51.552;9.874;2023-04-07T05:04:03;19.75;;;12.32;;
13795;SDS011;40911;51.552;9.874;2023-04-07T05:06:26;18.85;;;12.82;;
13795;SDS011;40911;51.552;9.874;2023-04-07T05:08:48;19.80;;;12.02;;
13795;SDS011;40911;51.552;9.874;2023-04-07T05:11:10;19.63;;;13.40;;
13795;SDS011;40911;51.552;9.874;2023-04-07T05:15:53;17.50;;;12.38;;
13795;SDS011;40911;51.552;9.874;2023-04-07T05:18:14;18.40;;;12.43;;
13795;SDS011;40911;51.552;9.874;2023-04-07T05:20:36;20.35;;;13.48;;
13795;SDS011;40911;51.552;9.874;2023-04-07T05:22:59;20.70;;;13.60;;
13795;SDS011;40911;51.552;9.874;2023-04-07T05:25:21;26.67;;;13.65;;
13795;SDS011;40911;51.552;9.874;2023-04-07T05:27:42;21.50;;;13.18;;
13795;SDS011;40911;51.552;9.874;2023-04-07T05:30:04;20.55;;;13.00;;
13795;SDS011;40911;51.552;9.874;2023-04-07T05:32:27;19.38;;;13.30;;
13795;SDS011;40911;51.552;9.874;2023-04-07T05:34:48;19.25;;;13.40;;
13795;SDS011;40911;51.552;9.874;2023-04-07T05:37:10;22.20;;;13.20;;
13795;SDS011;40911;51.552;9.874;2023-04-07T05:39:33;18.90;;;13.02;;
13795;SDS011;40911;51.552;9.874;2023-04-07T05:41:54;19.23;;;12.40;;
13795;SDS011;40911;51.552;9.874;2023-04-07T05:44:17;20.42;;;13.48;;
13795;SDS011;40911;51.552;9.874;2023-04-07T05:46:38;19.05;;;12.77;;
13795;SDS011;40911;51.552;9.874;2023-04-07T05:49:00;18.90;;;13.25;;
13795;SDS011;40911;51.552;9.874;2023-04-07T05:51:21;18.48;;;12.98;;
13795;SDS011;40911;51.552;9.874;2023-04-07T05:53:43;19.50;;;12.95;;
13795;SDS011;40911;51.552;9.874;2023-04-07T05:56:06;20.08;;;14.07;;
13795;SDS011;40911;51.552;9.874;2023-04-07T05:58:27;25.77;;;14.38;;
13795;SDS011;40911;51.552;9.874;2023-04-07T06:00:49;17.58;;;12.80;;
13795;SDS011;40911;51.552;9.874;2023-04-07T06:03:10;19.52;;;14.20;;
13795;SDS011;40911;51.552;9.874;2023-04-07T06:05:32;19.08;;;12.80;;
13795;SDS011;40911;51.552;9.874;2023-04-07T06:10:16;20.83;;;13.45;;
13795;SDS011;40911;51.552;9.874;2023-04-07T06:12:39;18.40;;;13.30;;
13795;SDS011;40911;51.552;9.874;2023-04-07T06:15:00;22.02;;;14.20;;
13795;SDS011;40911;51.552;9.874;2023-04-07T06:17:22;18.42;;;13.35;;
13795;SDS011;40911;51.552;9.874;2023-04-07T06:19:43;19.33;;;13.00;;
13795;SDS011;40911;51.552;9.874;2023-04-07T06:22:05;20.95;;;13.73;;
13795;SDS011;40911;51.552;9.874;2023-04-07T06:24:26;20.48;;;14.23;;
13795;SDS011;40911;51.552;9.874;2023-04-07T06:26:48;19.27;;;13.80;;
13795;SDS011;40911;51.552;9.874;2023-04-07T06:31:32;18.65;;;12.95;;
13795;SDS011;40911;51.552;9.874;2023-04-07T06:33:54;17.50;;;12.88;;
13795;SDS011;40911;51.552;9.874;2023-04-07T06:36:16;18.70;;;13.50;;
13795;SDS011;40911;51.552;9.874;2023-04-07T06:38:37;19.40;;;13.77;;
13795;SDS011;40911;51.552;9.874;2023-04-07T06:40:59;20.48;;;14.55;;
13795;SDS011;40911;51.552;9.874;2023-04-07T06:43:20;18.10;;;13.32;;
13795;SDS011;40911;51.552;9.874;2023-04-07T06:45:43;20.17;;;13.82;;
13795;SDS011;40911;51.552;9.874;2023-04-07T06:48:05;17.83;;;13.23;;
13795;SDS011;40911;51.552;9.874;2023-04-07T06:52:48;18.58;;;13.15;;
13795;SDS011;40911;51.552;9.874;2023-04-07T06:55:10;15.77;;;12.10;;
13795;SDS011;40911;51.552;9.874;2023-04-07T06:57:31;19.90;;;13.77;;
13795;SDS011;40911;51.552;9.874;2023-04-07T06:59:53;19.98;;;13.63;;
13795;SDS011;40911;51.552;9.874;2023-04-07T07:02:16;19.77;;;13.07;;
13795;SDS011;40911;51.552;9.874;2023-04-07T07:04:38;22.42;;;13.38;;
13795;SDS011;40911;51.552;9.874;2023-04-07T07:06:59;21.15;;;13.68;;
13795;SDS011;40911;51.552;9.874;2023-04-07T07:09:21;19.42;;;13.38;;
13795;SDS011;40911;51.552;9.874;2023-04-07T07:11:43;17.27;;;12.43;;
13795;SDS011;40911;51.552;9.874;2023-04-07T07:14:05;18.60;;;13.68;;
13795;SDS011;40911;51.552;9.874;2023-04-07T07:16:26;17.77;;;13.50;;
13795;SDS011;40911;51.552;9.874;2023-04-07T07:18:49;18.85;;;12.02;;
13795;SDS011;40911;51.552;9.874;2023-04-07T07:21:11;17.85;;;12.50;;
13795;SDS011;40911;51.552;9.874;2023-04-07T07:23:32;18.83;;;13.73;;
13795;SDS011;40911;51.552;9.874;2023-04-07T07:28:15;19.85;;;12.73;;
13795;SDS011;40911;51.552;9.874;2023-04-07T07:30:38;17.58;;;12.90;;
13795;SDS011;40911;51.552;9.874;2023-04-07T07:33:00;16.42;;;12.45;;
13795;SDS011;40911;51.552;9.874;2023-04-07T07:35:23;17.38;;;12.52;;
13795;SDS011;40911;51.552;9.874;2023-04-07T07:37:45;21.25;;;13.23;;
13795;SDS011;40911;51.552;9.874;2023-04-07T07:40:06;20.65;;;13.13;;
13795;SDS011;40911;51.552;9.874;2023-04-07T07:42:28;17.40;;;12.68;;
13795;SDS011;40911;51.552;9.874;2023-04-07T07:44:50;20.30;;;13.63;;
13795;SDS011;40911;51.552;9.874;2023-04-07T07:47:11;21.38;;;13.38;;
13795;SDS011;40911;51.552;9.874;2023-04-07T07:49:33;16.13;;;12.77;;
13795;SDS011;40911;51.552;9.874;2023-04-07T07:54:18;20.40;;;13.68;;
13795;SDS011;40911;51.552;9.874;2023-04-07T07:56:40;19.10;;;13.40;;
13795;SDS011;40911;51.552;9.874;2023-04-07T07:59:02;17.52;;;12.82;;
13795;SDS011;40911;51.552;9.874;2023-04-07T08:01:25;18.65;;;12.98;;
13795;SDS011;40911;51.552;9.874;2023-04-07T08:03:47;20.33;;;14.00;;
13795;SDS011;40911;51.552;9.874;2023-04-07T08:06:08;18.88;;;13.75;;
13795;SDS011;40911;51.552;9.874;2023-04-07T08:08:32;18.08;;;14.10;;
13795;SDS011;40911;51.552;9.874;2023-04-07T08:10:53;17.20;;;13.88;;
13795;SDS011;40911;51.552;9.874;2023-04-07T08:13:15;18.17;;;13.98;;
13795;SDS011;40911;51.552;9.874;2023-04-07T08:15:37;17.48;;;13.73;;
13795;SDS011;40911;51.552;9.874;2023-04-07T08:17:59;17.85;;;13.82;;
13795;SDS011;40911;51.552;9.874;2023-04-07T08:20:23;18.20;;;14.23;;
13795;SDS011;40911;51.552;9.874;2023-04-07T08:22:45;16.88;;;13.27;;
13795;SDS011;40911;51.552;9.874;2023-04-07T08:25:08;17.80;;;14.20;;
13795;SDS011;40911;51.552;9.874;2023-04-07T08:27:30;19.13;;;13.77;;
13795;SDS011;40911;51.552;9.874;2023-04-07T08:29:57;16.80;;;13.18;;
13795;SDS011;40911;51.552;9.874;2023-04-07T08:32:19;17.45;;;13.82;;
13795;SDS011;40911;51.552;9.874;2023-04-07T08:34:41;17.27;;;13.70;;
13795;SDS011;40911;51.552;9.874;2023-04-07T08:37:02;20.90;;;14.00;;
13795;SDS011;40911;51.552;9.874;2023-04-07T08:39:24;19.90;;;14.13;;
13795;SDS011;40911;51.552;9.874;2023-04-07T08:41:47;19.63;;;14.10;;
13795;SDS011;40911;51.552;9.874;2023-04-07T08:44:10;19.45;;;13.70;;
13795;SDS011;40911;51.552;9.874;2023-04-07T08:46:34;18.77;;;14.18;;
13795;SDS011;40911;51.552;9.874;2023-04-07T08:48:58;16.33;;;13.20;;
13795;SDS011;40911;51.552;9.874;2023-04-07T08:51:23;15.90;;;13.18;;
13795;SDS011;40911;51.552;9.874;2023-04-07T08:53:49;16.50;;;13.73;;
13795;SDS011;40911;51.552;9.874;2023-04-07T08:56:13;25.75;;;13.82;;
13795;SDS011;40911;51.552;9.874;2023-04-07T09:00:58;18.42;;;13.05;;
13795;SDS011;40911;51.552;9.874;2023-04-07T09:03:20;15.85;;;13.13;;
13795;SDS011;40911;51.552;9.874;2023-04-07T09:05:43;14.90;;;12.13;;
13795;SDS011;40911;51.552;9.874;2023-04-07T09:08:05;19.85;;;13.38;;
13795;SDS011;40911;51.552;9.874;2023-04-07T09:10:27;17.67;;;12.93;;
13795;SDS011;40911;51.552;9.874;2023-04-07T09:12:48;19.40;;;13.48;;
13795;SDS011;40911;51.552;9.874;2023-04-07T09:15:11;17.80;;;13.68;;
13795;SDS011;40911;51.552;9.874;2023-04-07T09:17:33;20.42;;;14.13;;
13795;SDS011;40911;51.552;9.874;2023-04-07T09:19:55;17.30;;;13.00;;
13795;SDS011;40911;51.552;9.874;2023-04-07T09:22:25;17.77;;;13.10;;
13795;SDS011;40911;51.552;9.874;2023-04-07T09:25:07;19.77;;;13.13;;
13795;SDS011;40911;51.552;9.874;2023-04-07T09:27:29;15.55;;;12.52;;
13795;SDS011;40911;51.552;9.874;2023-04-07T09:29:52;14.77;;;12.52;;
13795;SDS011;40911;51.552;9.874;2023-04-07T09:32:36;17.50;;;13.02;;
13795;SDS011;40911;51.552;9.874;2023-04-07T09:34:58;15.02;;;12.32;;
13795;SDS011;40911;51.552;9.874;2023-04-07T09:37:20;16.80;;;12.73;;
13795;SDS011;40911;51.552;9.874;2023-04-07T09:39:47;18.40;;;12.75;;
13795;SDS011;40911;51.552;9.874;2023-04-07T09:42:09;16.85;;;12.82;;
13795;SDS011;40911;51.552;9.874;2023-04-07T09:44:31;16.65;;;12.98;;
13795;SDS011;40911;51.552;9.874;2023-04-07T09:47:00;16.17;;;12.77;;
13795;SDS011;40911;51.552;9.874;2023-04-07T09:49:23;15.05;;;12.02;;
13795;SDS011;40911;51.552;9.874;2023-04-07T09:51:55;15.30;;;12.48;;
13795;SDS011;40911;51.552;9.874;2023-04-07T09:54:20;16.92;;;12.70;;
13795;SDS011;40911;51.552;9.874;2023-04-07T09:56:52;15.30;;;12.82;;
13795;SDS011;40911;51.552;9.874;2023-04-07T09:59:14;16.65;;;12.70;;
13795;SDS011;40911;51.552;9.874;2023-04-07T10:01:37;14.70;;;11.82;;
13795;SDS011;40911;51.552;9.874;2023-04-07T10:03:58;14.52;;;11.63;;
13795;SDS011;40911;51.552;9.874;2023-04-07T10:06:22;14.80;;;11.30;;
13795;SDS011;40911;51.552;9.874;2023-04-07T10:08:44;18.13;;;12.60;;
13795;SDS011;40911;51.552;9.874;2023-04-07T10:11:06;13.77;;;11.40;;
13795;SDS011;40911;51.552;9.874;2023-04-07T10:15:49;14.07;;;11.30;;
13795;SDS011;40911;51.552;9.874;2023-04-07T10:18:11;12.13;;;10.48;;
13795;SDS011;40911;51.552;9.874;2023-04-07T10:20:34;13.18;;;10.63;;
13795;SDS011;40911;51.552;9.874;2023-04-07T10:23:03;12.70;;;10.18;;
13795;SDS011;40911;51.552;9.874;2023-04-07T10:25:30;13.90;;;10.70;;
13795;SDS011;40911;51.552;9.874;2023-04-07T10:27:52;14.85;;;10.88;;
13795;SDS011;40911;51.552;9.874;2023-04-07T10:30:17;12.85;;;10.65;;
13795;SDS011;40911;51.552;9.874;2023-04-07T10:32:47;11.80;;;10.50;;
13795;SDS011;40911;51.552;9.874;2023-04-07T10:35:08;14.43;;;10.60;;
13795;SDS011;40911;51.552;9.874;2023-04-07T10:42:49;12.30;;;10.88;;
13795;SDS011;40911;51.552;9.874;2023-04-07T10:45:11;16.08;;;11.02;;
13795;SDS011;40911;51.552;9.874;2023-04-07T10:47:33;13.23;;;10.50;;
13795;SDS011;40911;51.552;9.874;2023-04-07T10:50:15;12.50;;;10.27;;
13795;SDS011;40911;51.552;9.874;2023-04-07T10:52:40;14.45;;;11.20;;
13795;SDS011;40911;51.552;9.874;2023-04-07T10:58:18;14.45;;;10.77;;
13795;SDS011;40911;51.552;9.874;2023-04-07T11:03:41;15.63;;;11.35;;
13795;SDS011;40911;51.552;9.874;2023-04-07T11:06:13;14.82;;;10.85;;
13795;SDS011;40911;51.552;9.874;2023-04-07T11:08:35;13.80;;;10.85;;
13795;SDS011;40911;51.552;9.874;2023-04-07T11:10:58;13.25;;;10.63;;
13795;SDS011;40911;51.552;9.874;2023-04-07T11:13:21;14.60;;;10.63;;
13795;SDS011;40911;51.552;9.874;2023-04-07T11:15:42;13.05;;;10.27;;
13795;SDS011;40911;51.552;9.874;2023-04-07T11:20:37;16.20;;;10.77;;
13795;SDS011;40911;51.552;9.874;2023-04-07T11:23:01;16.85;;;11.50;;
13795;SDS011;40911;51.552;9.874;2023-04-07T11:25:22;16.40;;;10.60;;
13795;SDS011;40911;51.552;9.874;2023-04-07T11:27:46;13.68;;;10.80;;
13795;SDS011;40911;51.552;9.874;2023-04-07T11:30:10;15.27;;;10.90;;
13795;SDS011;40911;51.552;9.874;2023-04-07T11:32:32;15.02;;;10.75;;
13795;SDS011;40911;51.552;9.874;2023-04-07T11:34:54;14.52;;;11.18;;
13795;SDS011;40911;51.552;9.874;2023-04-07T11:37:19;13.52;;;10.77;;
13795;SDS011;40911;51.552;9.874;2023-04-07T11:39:41;15.63;;;11.10;;
13795;SDS011;40911;51.552;9.874;2023-04-07T11:42:05;15.93;;;10.45;;
13795;SDS011;40911;51.552;9.874;2023-04-07T11:44:26;16.48;;;11.65;;
13795;SDS011;40911;51.552;9.874;2023-04-07T11:49:14;15.70;;;10.98;;
13795;SDS011;40911;51.552;9.874;2023-04-07T11:51:36;17.08;;;11.30;;
13795;SDS011;40911;51.552;9.874;2023-04-07T11:53:57;16.25;;;10.82;;
13795;SDS011;40911;51.552;9.874;2023-04-07T11:56:19;13.38;;;10.23;;
13795;SDS011;40911;51.552;9.874;2023-04-07T11:58:45;12.65;;;10.57;;
13795;SDS011;40911;51.552;9.874;2023-04-07T12:01:07;15.73;;;10.93;;
13795;SDS011;40911;51.552;9.874;2023-04-07T12:03:31;14.43;;;10.65;;
13795;SDS011;40911;51.552;9.874;2023-04-07T12:05:53;13.70;;;10.32;;
13795;SDS011;40911;51.552;9.874;2023-04-07T12:08:14;13.75;;;10.40;;
13795;SDS011;40911;51.552;9.874;2023-04-07T12:10:36;19.23;;;13.30;;
13795;SDS011;40911;51.552;9.874;2023-04-07T12:12:59;17.48;;;10.57;;
13795;SDS011;40911;51.552;9.874;2023-04-07T12:15:21;13.35;;;10.68;;
13795;SDS011;40911;51.552;9.874;2023-04-07T12:17:43;16.90;;;11.02;;
13795;SDS011;40911;51.552;9.874;2023-04-07T12:20:08;14.98;;;10.35;;
13795;SDS011;40911;51.552;9.874;2023-04-07T12:22:30;15.75;;;10.45;;
13795;SDS011;40911;51.552;9.874;2023-04-07T12:27:13;13.65;;;9.77;;
13795;SDS011;40911;51.552;9.874;2023-04-07T12:31:57;14.75;;;10.57;;
13795;SDS011;40911;51.552;9.874;2023-04-07T12:36:42;13.75;;;10.18;;
13795;SDS011;40911;51.552;9.874;2023-04-07T12:39:03;14.45;;;10.35;;
13795;SDS011;40911;51.552;9.874;2023-04-07T12:43:46;22.63;;;13.65;;
13795;SDS011;40911;51.552;9.874;2023-04-07T12:48:29;14.35;;;10.82;;
13795;SDS011;40911;51.552;9.874;2023-04-07T12:50:51;15.70;;;11.68;;
13795;SDS011;40911;51.552;9.874;2023-04-07T12:55:38;15.05;;;10.60;;
13795;SDS011;40911;51.552;9.874;2023-04-07T12:58:00;12.85;;;11.02;;
13795;SDS011;40911;51.552;9.874;2023-04-07T13:00:22;16.20;;;12.10;;
13795;SDS011;40911;51.552;9.874;2023-04-07T13:02:44;13.15;;;11.02;;
13795;SDS011;40911;51.552;9.874;2023-04-07T13:05:06;13.40;;;10.60;;
13795;SDS011;40911;51.552;9.874;2023-04-07T13:07:28;14.85;;;10.80;;
13795;SDS011;40911;51.552;9.874;2023-04-07T13:12:13;12.38;;;10.20;;
13795;SDS011;40911;51.552;9.874;2023-04-07T13:16:56;11.43;;;9.80;;
13795;SDS011;40911;51.552;9.874;2023-04-07T13:21:40;12.38;;;10.07;;
13795;SDS011;40911;51.552;9.874;2023-04-07T13:26:24;10.85;;;9.45;;
13795;SDS011;40911;51.552;9.874;2023-04-07T13:28:47;12.80;;;10.07;;
13795;SDS011;40911;51.552;9.874;2023-04-07T13:31:08;14.25;;;10.02;;
13795;SDS011;40911;51.552;9.874;2023-04-07T13:33:32;12.45;;;10.27;;
13795;SDS011;40911;51.552;9.874;2023-04-07T13:35:54;16.58;;;13.13;;
13795;SDS011;40911;51.552;9.874;2023-04-07T13:40:37;28.85;;;17.48;;
13795;SDS011;40911;51.552;9.874;2023-04-07T13:43:01;27.80;;;21.02;;
13795;SDS011;40911;51.552;9.874;2023-04-07T13:45:23;21.58;;;17.90;;
13795;SDS011;40911;51.552;9.874;2023-04-07T13:47:45;18.00;;;13.85;;
13795;SDS011;40911;51.552;9.874;2023-04-07T13:50:07;13.15;;;10.75;;
13795;SDS011;40911;51.552;9.874;2023-04-07T13:52:28;14.30;;;10.30;;
13795;SDS011;40911;51.552;9.874;2023-04-07T13:54:52;11.65;;;9.82;;
13795;SDS011;40911;51.552;9.874;2023-04-07T13:59:41;13.18;;;10.77;;
13795;SDS011;40911;51.552;9.874;2023-04-07T14:02:02;13.43;;;11.07;;
13795;SDS011;40911;51.552;9.874;2023-04-07T14:09:07;12.20;;;10.15;;
13795;SDS011;40911;51.552;9.874;2023-04-07T14:11:29;12.75;;;10.15;;
13795;SDS011;40911;51.552;9.874;2023-04-07T14:13:52;11.55;;;9.40;;
13795;SDS011;40911;51.552;9.874;2023-04-07T14:16:16;14.85;;;11.60;;
13795;SDS011;40911;51.552;9.874;2023-04-07T14:18:38;11.88;;;10.63;;
13795;SDS011;40911;51.552;9.874;2023-04-07T14:23:22;11.85;;;9.57;;
13795;SDS011;40911;51.552;9.874;2023-04-07T14:25:43;14.23;;;9.65;;
13795;SDS011;40911;51.552;9.874;2023-04-07T14:30:27;12.15;;;9.40;;
13795;SDS011;40911;51.552;9.874;2023-04-07T14:32:51;10.45;;;9.35;;
13795;SDS011;40911;51.552;9.874;2023-04-07T14:35:12;10.70;;;9.65;;
13795;SDS011;40911;51.552;9.874;2023-04-07T14:37:34;12.55;;;10.13;;
13795;SDS011;40911;51.552;9.874;2023-04-07T14:39:56;13.60;;;10.13;;
13795;SDS011;40911;51.552;9.874;2023-04-07T14:42:19;12.23;;;10.65;;
13795;SDS011;40911;51.552;9.874;2023-04-07T14:44:41;11.93;;;9.80;;
13795;SDS011;40911;51.552;9.874;2023-04-07T14:47:02;10.60;;;9.50;;
13795;SDS011;40911;51.552;9.874;2023-04-07T14:51:47;11.30;;;10.10;;
13795;SDS011;40911;51.552;9.874;2023-04-07T14:54:09;12.98;;;10.15;;
13795;SDS011;40911;51.552;9.874;2023-04-07T14:56:31;11.88;;;9.18;;
13795;SDS011;40911;51.552;9.874;2023-04-07T14:58:53;10.13;;;9.13;;
13795;SDS011;40911;51.552;9.874;2023-04-07T15:03:36;11.25;;;8.35;;
13795;SDS011;40911;51.552;9.874;2023-04-07T15:05:59;9.82;;;8.23;;
13795;SDS011;40911;51.552;9.874;2023-04-07T15:08:21;9.88;;;7.95;;
13795;SDS011;40911;51.552;9.874;2023-04-07T15:13:04;8.90;;;7.47;;
13795;SDS011;40911;51.552;9.874;2023-04-07T15:15:26;11.32;;;9.35;;
13795;SDS011;40911;51.552;9.874;2023-04-07T15:17:47;8.90;;;7.95;;
13795;SDS011;40911;51.552;9.874;2023-04-07T15:22:33;8.32;;;7.20;;
13795;SDS011;40911;51.552;9.874;2023-04-07T15:24:54;7.78;;;6.95;;
13795;SDS011;40911;51.552;9.874;2023-04-07T15:27:16;8.43;;;7.47;;
13795;SDS011;40911;51.552;9.874;2023-04-07T15:29:38;10.13;;;7.13;;
13795;SDS011;40911;51.552;9.874;2023-04-07T15:51:07;9.35;;;7.47;;
13795;SDS011;40911;51.552;9.874;2023-04-07T16:00:00;10.35;;;7.63;;
13795;SDS011;40911;51.552;9.874;2023-04-07T16:11:46;11.40;;;8.80;;
13795;SDS011;40911;51.552;9.874;2023-04-07T16:37:28;12.32;;;9.43;;